<?xml version='1.0' encoding='UTF-8'?><gpx version="1.1" creator="JPX - https://github.com/jenetics/jpx" xmlns="http://www.topografix.com/GPX/1/1"><trk><trkseg><trkpt lat="43.9453259" lon="10.5559208"><ele>689.0</ele><time>2026-04-19T06:48:23.952Z</time></trkpt><trkpt lat="43.9453054" lon="10.5558293"><ele>689.0</ele><time>2026-04-19T06:48:29.951Z</time></trkpt><trkpt lat="43.9452806" lon="10.5557485"><ele>689.0</ele><time>2026-04-19T06:48:38.95Z</time></trkpt><trkpt lat="43.9452427" lon="10.5556614"><ele>689.0</ele><time>2026-04-19T06:48:45.951Z</time></trkpt><trkpt lat="43.9451803" lon="10.5555972"><ele>689.0</ele><time>2026-04-19T06:48:52.95Z</time></trkpt><trkpt lat="43.9451191" lon="10.5555489"><ele>689.0</ele><time>2026-04-19T06:48:57.95Z</time></trkpt><trkpt lat="43.9450836" lon="10.5554729"><ele>689.0</ele><time>2026-04-19T06:49:02.95Z</time></trkpt><trkpt lat="43.9450242" lon="10.5554163"><ele>686.2857142857142</ele><time>2026-04-19T06:49:08.952Z</time></trkpt><trkpt lat="43.9449693" lon="10.5553691"><ele>683.5714285714286</ele><time>2026-04-19T06:49:14.951Z</time></trkpt><trkpt lat="43.9449098" lon="10.5553376"><ele>680.8571428571429</ele><time>2026-04-19T06:49:22.95Z</time></trkpt><trkpt lat="43.9449035" lon="10.5552485"><ele>678.1428571428571</ele><time>2026-04-19T06:49:32.952Z</time></trkpt><trkpt lat="43.9448443" lon="10.5552834"><ele>675.4285714285714</ele><time>2026-04-19T06:49:57.953Z</time></trkpt><trkpt lat="43.9447999" lon="10.5554189"><ele>672.7142857142857</ele><time>2026-04-19T06:50:28.95Z</time></trkpt><trkpt lat="43.9447569" lon="10.555483"><ele>670.0</ele><time>2026-04-19T06:50:33.95Z</time></trkpt><trkpt lat="43.9447077" lon="10.5555426"><ele>669.9999999999999</ele><time>2026-04-19T06:50:42.951Z</time></trkpt><trkpt lat="43.9447101" lon="10.55563"><ele>670.0</ele><time>2026-04-19T06:50:50.951Z</time></trkpt><trkpt lat="43.9447733" lon="10.555615"><ele>670.0</ele><time>2026-04-19T06:59:34.951Z</time></trkpt><trkpt lat="43.94477" lon="10.5555217"><ele>670.0</ele><time>2026-04-19T07:00:02.951Z</time></trkpt><trkpt lat="43.94481" lon="10.5554033"><ele>670.0</ele><time>2026-04-19T07:00:03.951Z</time></trkpt><trkpt lat="43.9448474" lon="10.5553234"><ele>669.9999999999999</ele><time>2026-04-19T07:00:12.952Z</time></trkpt><trkpt lat="43.9448937" lon="10.5552619"><ele>670.0</ele><time>2026-04-19T07:00:19.951Z</time></trkpt><trkpt lat="43.9449417" lon="10.5552017"><ele>670.0</ele><time>2026-04-19T07:06:50.951Z</time></trkpt><trkpt lat="43.9449717" lon="10.5551183"><ele>670.0</ele><time>2026-04-19T07:07:01.951Z</time></trkpt><trkpt lat="43.9450233" lon="10.5549783"><ele>670.0</ele><time>2026-04-19T07:17:44.952Z</time></trkpt><trkpt lat="43.9450983" lon="10.5549783"><ele>670.0</ele><time>2026-04-19T07:17:51.953Z</time></trkpt><trkpt lat="43.9451433" lon="10.5549067"><ele>670.0</ele><time>2026-04-19T07:18:07.952Z</time></trkpt><trkpt lat="43.94515" lon="10.5548117"><ele>670.0</ele><time>2026-04-19T07:18:13.952Z</time></trkpt><trkpt lat="43.9451733" lon="10.554715"><ele>672.1666666666667</ele><time>2026-04-19T07:18:19.952Z</time></trkpt><trkpt lat="43.9451817" lon="10.5546133"><ele>674.3333333333334</ele><time>2026-04-19T07:18:25.951Z</time></trkpt><trkpt lat="43.945195" lon="10.5545192"><ele>676.5</ele><time>2026-04-19T07:18:32.952Z</time></trkpt><trkpt lat="43.9451496" lon="10.5544062"><ele>678.6666666666666</ele><time>2026-04-19T07:19:02.951Z</time></trkpt><trkpt lat="43.9451363" lon="10.5543082"><ele>680.8333333333333</ele><time>2026-04-19T07:19:08.951Z</time></trkpt><trkpt lat="43.9451105" lon="10.5541818"><ele>683.0</ele><time>2026-04-19T07:19:26.953Z</time></trkpt><trkpt lat="43.9450832" lon="10.5540976"><ele>683.0</ele><time>2026-04-19T07:19:32.952Z</time></trkpt><trkpt lat="43.9450489" lon="10.5540192"><ele>683.0</ele><time>2026-04-19T07:19:37.952Z</time></trkpt><trkpt lat="43.9450185" lon="10.5539423"><ele>683.0</ele><time>2026-04-19T07:19:43.952Z</time></trkpt><trkpt lat="43.9449795" lon="10.5538153"><ele>683.0</ele><time>2026-04-19T07:20:07.952Z</time></trkpt><trkpt lat="43.944922" lon="10.5537169"><ele>683.0</ele><time>2026-04-19T07:20:15.951Z</time></trkpt><trkpt lat="43.9448656" lon="10.5536355"><ele>683.0</ele><time>2026-04-19T07:20:21.954Z</time></trkpt><trkpt lat="43.9448955" lon="10.5537172"><ele>682.5</ele><time>2026-04-19T07:21:47.952Z</time></trkpt><trkpt lat="43.9448492" lon="10.5536347"><ele>682.0</ele><time>2026-04-19T07:27:06.951Z</time></trkpt><trkpt lat="43.9448031" lon="10.5535743"><ele>681.5</ele><time>2026-04-19T07:27:50.952Z</time></trkpt><trkpt lat="43.9448473" lon="10.5536399"><ele>681.0</ele><time>2026-04-19T07:28:21.951Z</time></trkpt><trkpt lat="43.9449399" lon="10.5536228"><ele>680.5</ele><time>2026-04-19T07:30:43.951Z</time></trkpt><trkpt lat="43.9450516" lon="10.5535948"><ele>680.0</ele><time>2026-04-19T07:31:35.95Z</time></trkpt><trkpt lat="43.9451221" lon="10.5535552"><ele>680.0</ele><time>2026-04-19T07:31:42.95Z</time></trkpt><trkpt lat="43.9451867" lon="10.5535033"><ele>680.0</ele><time>2026-04-19T07:35:57.95Z</time></trkpt><trkpt lat="43.94527" lon="10.5535717"><ele>680.0</ele><time>2026-04-19T07:36:23.951Z</time></trkpt><trkpt lat="43.9453383" lon="10.5534733"><ele>680.0</ele><time>2026-04-19T07:37:39.95Z</time></trkpt><trkpt lat="43.9453884" lon="10.5535589"><ele>680.0</ele><time>2026-04-19T07:38:03.951Z</time></trkpt><trkpt lat="43.945369" lon="10.553644"><ele>680.0</ele><time>2026-04-19T07:38:09.95Z</time></trkpt><trkpt lat="43.9453773" lon="10.5537392"><ele>680.6</ele><time>2026-04-19T07:38:15.952Z</time></trkpt><trkpt lat="43.9454325" lon="10.5538021"><ele>681.2</ele><time>2026-04-19T07:38:24.951Z</time></trkpt><trkpt lat="43.9455661" lon="10.553838"><ele>681.8</ele><time>2026-04-19T07:38:43.951Z</time></trkpt><trkpt lat="43.9456164" lon="10.5538995"><ele>682.4</ele><time>2026-04-19T07:39:21.951Z</time></trkpt><trkpt lat="43.9457289" lon="10.5539158"><ele>683.0</ele><time>2026-04-19T07:39:32.952Z</time></trkpt><trkpt lat="43.9458584" lon="10.5539109"><ele>683.0</ele><time>2026-04-19T07:39:51.951Z</time></trkpt><trkpt lat="43.9459233" lon="10.553915"><ele>683.0</ele><time>2026-04-19T07:39:55.952Z</time></trkpt><trkpt lat="43.945945" lon="10.5540183"><ele>683.0</ele><time>2026-04-19T07:40:04.951Z</time></trkpt><trkpt lat="43.9459" lon="10.5541183"><ele>683.0</ele><time>2026-04-19T07:40:16.955Z</time></trkpt><trkpt lat="43.945845" lon="10.5541717"><ele>683.0</ele><time>2026-04-19T07:40:24.951Z</time></trkpt><trkpt lat="43.9458994" lon="10.5542567"><ele>683.0</ele><time>2026-04-19T07:40:51.95Z</time></trkpt><trkpt lat="43.9458671" lon="10.5541815"><ele>683.0</ele><time>2026-04-19T07:42:12.952Z</time></trkpt><trkpt lat="43.9459023" lon="10.5540871"><ele>683.0</ele><time>2026-04-19T07:42:50.95Z</time></trkpt><trkpt lat="43.9459652" lon="10.554072"><ele>683.0</ele><time>2026-04-19T07:42:55.951Z</time></trkpt><trkpt lat="43.9459044" lon="10.554118"><ele>683.0</ele><time>2026-04-19T07:43:11.951Z</time></trkpt><trkpt lat="43.9458754" lon="10.5541961"><ele>683.0</ele><time>2026-04-19T07:43:22.95Z</time></trkpt><trkpt lat="43.9458967" lon="10.554282"><ele>683.0</ele><time>2026-04-19T07:43:47.95Z</time></trkpt><trkpt lat="43.9459205" lon="10.5544075"><ele>683.0</ele><time>2026-04-19T07:44:02.95Z</time></trkpt><trkpt lat="43.9459786" lon="10.5544695"><ele>683.0</ele><time>2026-04-19T07:44:10.952Z</time></trkpt><trkpt lat="43.9459723" lon="10.5545574"><ele>683.0</ele><time>2026-04-19T07:44:27.95Z</time></trkpt><trkpt lat="43.9460169" lon="10.5546263"><ele>683.0</ele><time>2026-04-19T07:44:30.95Z</time></trkpt><trkpt lat="43.9460552" lon="10.5545551"><ele>683.0</ele><time>2026-04-19T07:44:38.95Z</time></trkpt><trkpt lat="43.9459667" lon="10.5544033"><ele>683.0</ele><time>2026-04-19T07:44:51.95Z</time></trkpt><trkpt lat="43.9458717" lon="10.5543217"><ele>683.0</ele><time>2026-04-19T07:45:07.951Z</time></trkpt><trkpt lat="43.9459167" lon="10.5542567"><ele>683.0</ele><time>2026-04-19T07:45:58.95Z</time></trkpt><trkpt lat="43.945845" lon="10.5541467"><ele>683.0</ele><time>2026-04-19T07:47:11.952Z</time></trkpt><trkpt lat="43.9459033" lon="10.5542417"><ele>683.0</ele><time>2026-04-19T07:47:25.952Z</time></trkpt><trkpt lat="43.94589" lon="10.5540883"><ele>683.0</ele><time>2026-04-19T07:49:44.952Z</time></trkpt><trkpt lat="43.9458833" lon="10.5539933"><ele>683.0</ele><time>2026-04-19T07:50:13.951Z</time></trkpt><trkpt lat="43.9458383" lon="10.5539283"><ele>683.0</ele><time>2026-04-19T07:50:22.953Z</time></trkpt><trkpt lat="43.94576" lon="10.553865"><ele>683.0</ele><time>2026-04-19T07:51:07.952Z</time></trkpt><trkpt lat="43.9458167" lon="10.5539417"><ele>683.0</ele><time>2026-04-19T07:52:38.953Z</time></trkpt><trkpt lat="43.9457767" lon="10.5538317"><ele>683.0</ele><time>2026-04-19T07:53:28.952Z</time></trkpt><trkpt lat="43.9458633" lon="10.5538517"><ele>683.0</ele><time>2026-04-19T07:54:24.951Z</time></trkpt><trkpt lat="43.9457883" lon="10.5538167"><ele>683.0</ele><time>2026-04-19T07:55:41.951Z</time></trkpt><trkpt lat="43.9457633" lon="10.5537333"><ele>683.0</ele><time>2026-04-19T07:59:57.95Z</time></trkpt><trkpt lat="43.94578" lon="10.5536433"><ele>683.0</ele><time>2026-04-19T08:00:11.953Z</time></trkpt><trkpt lat="43.9457748" lon="10.553545"><ele>682.5714285714286</ele><time>2026-04-19T08:00:32.952Z</time></trkpt><trkpt lat="43.9457779" lon="10.5534508"><ele>682.1428571428571</ele><time>2026-04-19T08:00:43.951Z</time></trkpt><trkpt lat="43.9458016" lon="10.5533617"><ele>681.7142857142858</ele><time>2026-04-19T08:00:59.954Z</time></trkpt><trkpt lat="43.9458256" lon="10.5532767"><ele>681.2857142857142</ele><time>2026-04-19T08:01:25.951Z</time></trkpt><trkpt lat="43.9458869" lon="10.5532992"><ele>680.8571428571428</ele><time>2026-04-19T08:01:38.952Z</time></trkpt><trkpt lat="43.9459718" lon="10.5533059"><ele>680.4285714285714</ele><time>2026-04-19T08:02:01.952Z</time></trkpt><trkpt lat="43.9460394" lon="10.5532753"><ele>680.0</ele><time>2026-04-19T08:02:31.951Z</time></trkpt><trkpt lat="43.9461056" lon="10.5532316"><ele>683.0</ele><time>2026-04-19T08:02:39.952Z</time></trkpt><trkpt lat="43.9461901" lon="10.5532592"><ele>686.0</ele><time>2026-04-19T08:03:14.952Z</time></trkpt><trkpt lat="43.9461378" lon="10.5532082"><ele>689.0</ele><time>2026-04-19T08:04:05.952Z</time></trkpt><trkpt lat="43.9461021" lon="10.5531355"><ele>692.0</ele><time>2026-04-19T08:04:12.951Z</time></trkpt><trkpt lat="43.9461636" lon="10.5531784"><ele>695.0</ele><time>2026-04-19T08:04:50.951Z</time></trkpt><trkpt lat="43.9462757" lon="10.5532211"><ele>698.0</ele><time>2026-04-19T08:05:33.951Z</time></trkpt><trkpt lat="43.9463333" lon="10.5531783"><ele>698.0</ele><time>2026-04-19T08:05:38.951Z</time></trkpt><trkpt lat="43.9463967" lon="10.55308"><ele>698.0</ele><time>2026-04-19T08:06:31.952Z</time></trkpt><trkpt lat="43.9463133" lon="10.5529983"><ele>698.0</ele><time>2026-04-19T08:06:49.951Z</time></trkpt><trkpt lat="43.9462517" lon="10.5529733"><ele>698.0</ele><time>2026-04-19T08:10:01.951Z</time></trkpt><trkpt lat="43.9463133" lon="10.55302"><ele>698.0</ele><time>2026-04-19T08:11:12.952Z</time></trkpt><trkpt lat="43.9462283" lon="10.5530133"><ele>698.0</ele><time>2026-04-19T08:12:33.951Z</time></trkpt><trkpt lat="43.94621" lon="10.5531883"><ele>697.9999999999999</ele><time>2026-04-19T08:13:44.95Z</time></trkpt><trkpt lat="43.9462" lon="10.553355"><ele>698.0</ele><time>2026-04-19T08:14:25.951Z</time></trkpt><trkpt lat="43.9461367" lon="10.553335"><ele>698.0</ele><time>2026-04-19T08:14:29.952Z</time></trkpt><trkpt lat="43.9460867" lon="10.5532767"><ele>698.0</ele><time>2026-04-19T08:14:37.951Z</time></trkpt><trkpt lat="43.9460467" lon="10.553205"><ele>698.0</ele><time>2026-04-19T08:14:45.951Z</time></trkpt><trkpt lat="43.9460333" lon="10.5531133"><ele>697.9999999999999</ele><time>2026-04-19T08:14:53.952Z</time></trkpt><trkpt lat="43.9460583" lon="10.55303"><ele>698.0</ele><time>2026-04-19T08:15:03.951Z</time></trkpt><trkpt lat="43.946115" lon="10.5529917"><ele>698.0</ele><time>2026-04-19T08:15:11.951Z</time></trkpt><trkpt lat="43.94617" lon="10.55294"><ele>698.0</ele><time>2026-04-19T08:15:19.95Z</time></trkpt><trkpt lat="43.946235" lon="10.5528933"><ele>698.0</ele><time>2026-04-19T08:15:30.951Z</time></trkpt><trkpt lat="43.9462717" lon="10.5528167"><ele>698.0</ele><time>2026-04-19T08:15:36.951Z</time></trkpt><trkpt lat="43.9463367" lon="10.55269"><ele>698.0</ele><time>2026-04-19T08:15:58.951Z</time></trkpt><trkpt lat="43.946395" lon="10.5526467"><ele>698.0</ele><time>2026-04-19T08:16:06.951Z</time></trkpt><trkpt lat="43.9464618" lon="10.552541"><ele>697.4285714285713</ele><time>2026-04-19T08:16:20.952Z</time></trkpt><trkpt lat="43.946493" lon="10.5524411"><ele>696.8571428571429</ele><time>2026-04-19T08:16:25.951Z</time></trkpt><trkpt lat="43.9464822" lon="10.5523495"><ele>696.2857142857142</ele><time>2026-04-19T08:16:33.952Z</time></trkpt><trkpt lat="43.9464319" lon="10.5522852"><ele>695.7142857142857</ele><time>2026-04-19T08:16:40.951Z</time></trkpt><trkpt lat="43.946368" lon="10.5522607"><ele>695.1428571428571</ele><time>2026-04-19T08:16:46.951Z</time></trkpt><trkpt lat="43.9463128" lon="10.5522139"><ele>694.5714285714286</ele><time>2026-04-19T08:16:51.951Z</time></trkpt><trkpt lat="43.9462972" lon="10.5521203"><ele>694.0</ele><time>2026-04-19T08:16:57.951Z</time></trkpt><trkpt lat="43.9462883" lon="10.5520298"><ele>695.1428571428572</ele><time>2026-04-19T08:17:02.952Z</time></trkpt><trkpt lat="43.9463091" lon="10.5519445"><ele>696.2857142857142</ele><time>2026-04-19T08:17:09.95Z</time></trkpt><trkpt lat="43.9463387" lon="10.5518665"><ele>697.4285714285714</ele><time>2026-04-19T08:17:14.954Z</time></trkpt><trkpt lat="43.9463526" lon="10.5517696"><ele>698.5714285714287</ele><time>2026-04-19T08:17:21.953Z</time></trkpt><trkpt lat="43.9463265" lon="10.5516834"><ele>699.7142857142858</ele><time>2026-04-19T08:17:29.956Z</time></trkpt><trkpt lat="43.9462618" lon="10.5516556"><ele>700.8571428571429</ele><time>2026-04-19T08:17:36.953Z</time></trkpt><trkpt lat="43.9461904" lon="10.5516736"><ele>702.0</ele><time>2026-04-19T08:17:44.955Z</time></trkpt><trkpt lat="43.9461245" lon="10.5517141"><ele>702.0000000000001</ele><time>2026-04-19T08:17:48.952Z</time></trkpt><trkpt lat="43.9460554" lon="10.5517386"><ele>702.0</ele><time>2026-04-19T08:17:53.953Z</time></trkpt><trkpt lat="43.9459847" lon="10.551731"><ele>702.0</ele><time>2026-04-19T08:18:00.953Z</time></trkpt><trkpt lat="43.9459232" lon="10.5516955"><ele>702.0</ele><time>2026-04-19T08:18:07.953Z</time></trkpt><trkpt lat="43.9458863" lon="10.5516144"><ele>702.0</ele><time>2026-04-19T08:18:14.954Z</time></trkpt><trkpt lat="43.9458952" lon="10.5515268"><ele>702.0000000000001</ele><time>2026-04-19T08:18:22.953Z</time></trkpt><trkpt lat="43.9458976" lon="10.551431"><ele>702.0</ele><time>2026-04-19T08:18:30.952Z</time></trkpt><trkpt lat="43.9459014" lon="10.5513366"><ele>702.0000000000001</ele><time>2026-04-19T08:18:36.953Z</time></trkpt><trkpt lat="43.9459507" lon="10.5512722"><ele>702.0</ele><time>2026-04-19T08:18:43.952Z</time></trkpt><trkpt lat="43.9460029" lon="10.5512044"><ele>702.0</ele><time>2026-04-19T08:18:51.952Z</time></trkpt><trkpt lat="43.9460299" lon="10.5511207"><ele>702.0</ele><time>2026-04-19T08:18:59.952Z</time></trkpt><trkpt lat="43.946063" lon="10.5510343"><ele>702.0</ele><time>2026-04-19T08:19:10.954Z</time></trkpt><trkpt lat="43.9461133" lon="10.550978"><ele>702.0000000000001</ele><time>2026-04-19T08:19:17.953Z</time></trkpt><trkpt lat="43.946139" lon="10.5508964"><ele>702.0</ele><time>2026-04-19T08:19:24.952Z</time></trkpt><trkpt lat="43.9461647" lon="10.550805"><ele>701.7142857142858</ele><time>2026-04-19T08:19:32.952Z</time></trkpt><trkpt lat="43.9461828" lon="10.5507116"><ele>701.4285714285714</ele><time>2026-04-19T08:19:40.953Z</time></trkpt><trkpt lat="43.9461824" lon="10.5506155"><ele>701.1428571428571</ele><time>2026-04-19T08:19:48.953Z</time></trkpt><trkpt lat="43.94621" lon="10.5505369"><ele>700.8571428571429</ele><time>2026-04-19T08:19:56.955Z</time></trkpt><trkpt lat="43.9462587" lon="10.5504716"><ele>700.5714285714286</ele><time>2026-04-19T08:20:08.954Z</time></trkpt><trkpt lat="43.9462768" lon="10.5503833"><ele>700.2857142857143</ele><time>2026-04-19T08:20:16.95Z</time></trkpt><trkpt lat="43.9463332" lon="10.5503248"><ele>700.0</ele><time>2026-04-19T08:20:22.951Z</time></trkpt><trkpt lat="43.9463916" lon="10.5502775"><ele>700.0</ele><time>2026-04-19T08:20:30.95Z</time></trkpt><trkpt lat="43.9464467" lon="10.5502291"><ele>700.0</ele><time>2026-04-19T08:20:37.951Z</time></trkpt><trkpt lat="43.9465155" lon="10.550132"><ele>700.0</ele><time>2026-04-19T08:21:10.951Z</time></trkpt><trkpt lat="43.9465785" lon="10.5501186"><ele>700.0</ele><time>2026-04-19T08:21:16.952Z</time></trkpt><trkpt lat="43.9466516" lon="10.5501343"><ele>700.0</ele><time>2026-04-19T08:21:25.95Z</time></trkpt><trkpt lat="43.9467228" lon="10.5501106"><ele>700.0</ele><time>2026-04-19T08:21:30.952Z</time></trkpt><trkpt lat="43.9467885" lon="10.5500795"><ele>700.0</ele><time>2026-04-19T08:21:35.951Z</time></trkpt><trkpt lat="43.946842" lon="10.5500264"><ele>701.0</ele><time>2026-04-19T08:21:42.951Z</time></trkpt><trkpt lat="43.946901" lon="10.5499825"><ele>702.0</ele><time>2026-04-19T08:21:49.951Z</time></trkpt><trkpt lat="43.9469566" lon="10.5499146"><ele>703.0</ele><time>2026-04-19T08:21:54.95Z</time></trkpt><trkpt lat="43.9469928" lon="10.5498305"><ele>704.0</ele><time>2026-04-19T08:22:03.951Z</time></trkpt><trkpt lat="43.9470282" lon="10.549755"><ele>705.0</ele><time>2026-04-19T08:22:08.95Z</time></trkpt><trkpt lat="43.9471384" lon="10.5497186"><ele>706.0</ele><time>2026-04-19T08:22:52.951Z</time></trkpt><trkpt lat="43.9470697" lon="10.5497452"><ele>706.0</ele><time>2026-04-19T08:23:25.95Z</time></trkpt><trkpt lat="43.9471458" lon="10.5497609"><ele>706.0</ele><time>2026-04-19T08:24:45.952Z</time></trkpt><trkpt lat="43.9471475" lon="10.5496634"><ele>706.0</ele><time>2026-04-19T08:25:13.952Z</time></trkpt><trkpt lat="43.9470863" lon="10.5496841"><ele>706.0</ele><time>2026-04-19T08:26:10.951Z</time></trkpt><trkpt lat="43.9471649" lon="10.5497634"><ele>706.0</ele><time>2026-04-19T08:29:17.95Z</time></trkpt><trkpt lat="43.947114" lon="10.5497105"><ele>706.0</ele><time>2026-04-19T08:29:50.951Z</time></trkpt><trkpt lat="43.9470298" lon="10.5496368"><ele>706.0</ele><time>2026-04-19T08:31:38.951Z</time></trkpt><trkpt lat="43.947095" lon="10.5496397"><ele>706.0</ele><time>2026-04-19T08:32:05.951Z</time></trkpt><trkpt lat="43.9470776" lon="10.5497249"><ele>706.0</ele><time>2026-04-19T08:33:15.952Z</time></trkpt><trkpt lat="43.9470736" lon="10.5498183"><ele>706.0</ele><time>2026-04-19T08:33:26.951Z</time></trkpt><trkpt lat="43.9470237" lon="10.5499505"><ele>706.0</ele><time>2026-04-19T08:33:50.951Z</time></trkpt><trkpt lat="43.9469598" lon="10.5500463"><ele>706.0</ele><time>2026-04-19T08:34:38.953Z</time></trkpt><trkpt lat="43.9469255" lon="10.5501355"><ele>706.0</ele><time>2026-04-19T08:34:45.952Z</time></trkpt><trkpt lat="43.9469852" lon="10.550083"><ele>706.0</ele><time>2026-04-19T08:35:10.952Z</time></trkpt><trkpt lat="43.9469561" lon="10.5501655"><ele>706.0</ele><time>2026-04-19T08:36:10.952Z</time></trkpt><trkpt lat="43.9468917" lon="10.5501567"><ele>706.0</ele><time>2026-04-19T08:38:50.951Z</time></trkpt><trkpt lat="43.9469295" lon="10.5500817"><ele>706.0</ele><time>2026-04-19T08:39:00.952Z</time></trkpt><trkpt lat="43.9468961" lon="10.5501892"><ele>706.0</ele><time>2026-04-19T08:39:36.953Z</time></trkpt><trkpt lat="43.9469259" lon="10.5502695"><ele>706.0</ele><time>2026-04-19T08:40:35.952Z</time></trkpt><trkpt lat="43.946913" lon="10.5503838"><ele>706.0</ele><time>2026-04-19T08:41:10.952Z</time></trkpt><trkpt lat="43.9469325" lon="10.5502947"><ele>706.0</ele><time>2026-04-19T08:41:41.951Z</time></trkpt><trkpt lat="43.9469492" lon="10.5502068"><ele>706.0</ele><time>2026-04-19T08:41:48.953Z</time></trkpt><trkpt lat="43.9469951" lon="10.5501361"><ele>706.0</ele><time>2026-04-19T08:41:55.951Z</time></trkpt><trkpt lat="43.9470437" lon="10.5500579"><ele>706.0</ele><time>2026-04-19T08:42:04.951Z</time></trkpt><trkpt lat="43.9470897" lon="10.5499953"><ele>706.0</ele><time>2026-04-19T08:42:11.951Z</time></trkpt><trkpt lat="43.9471551" lon="10.549913"><ele>706.0</ele><time>2026-04-19T08:42:28.952Z</time></trkpt><trkpt lat="43.9471585" lon="10.5498095"><ele>706.0</ele><time>2026-04-19T08:42:31.953Z</time></trkpt><trkpt lat="43.9471764" lon="10.5497069"><ele>706.0</ele><time>2026-04-19T08:42:35.952Z</time></trkpt><trkpt lat="43.947115" lon="10.5496618"><ele>706.0</ele><time>2026-04-19T08:44:10.95Z</time></trkpt><trkpt lat="43.9472233" lon="10.54965"><ele>706.0</ele><time>2026-04-19T08:54:16.952Z</time></trkpt><trkpt lat="43.9471233" lon="10.54969"><ele>706.0</ele><time>2026-04-19T08:56:06.952Z</time></trkpt><trkpt lat="43.9471833" lon="10.549635"><ele>706.0</ele><time>2026-04-19T08:58:40.951Z</time></trkpt><trkpt lat="43.9472483" lon="10.5496183"><ele>706.0</ele><time>2026-04-19T08:58:48.953Z</time></trkpt><trkpt lat="43.947335" lon="10.5496083"><ele>706.0</ele><time>2026-04-19T08:59:01.951Z</time></trkpt><trkpt lat="43.947405" lon="10.5496217"><ele>706.0</ele><time>2026-04-19T08:59:10.95Z</time></trkpt><trkpt lat="43.9474611" lon="10.5496648"><ele>706.0</ele><time>2026-04-19T08:59:19.95Z</time></trkpt><trkpt lat="43.9475413" lon="10.5496604"><ele>706.0</ele><time>2026-04-19T08:59:27.951Z</time></trkpt><trkpt lat="43.9476072" lon="10.5496394"><ele>706.0</ele><time>2026-04-19T08:59:35.952Z</time></trkpt><trkpt lat="43.9476694" lon="10.549609"><ele>706.0</ele><time>2026-04-19T08:59:42.95Z</time></trkpt><trkpt lat="43.94782" lon="10.5495848"><ele>705.5</ele><time>2026-04-19T09:00:14.951Z</time></trkpt><trkpt lat="43.9479266" lon="10.5496021"><ele>705.0</ele><time>2026-04-19T09:01:04.95Z</time></trkpt><trkpt lat="43.9479888" lon="10.5495403"><ele>704.5</ele><time>2026-04-19T09:02:53.951Z</time></trkpt><trkpt lat="43.9480531" lon="10.5495083"><ele>704.0</ele><time>2026-04-19T09:03:03.951Z</time></trkpt><trkpt lat="43.9481319" lon="10.5494733"><ele>703.5</ele><time>2026-04-19T09:03:30.952Z</time></trkpt><trkpt lat="43.9481918" lon="10.5495032"><ele>703.0</ele><time>2026-04-19T09:03:34.951Z</time></trkpt><trkpt lat="43.9482528" lon="10.5495468"><ele>703.0</ele><time>2026-04-19T09:03:41.952Z</time></trkpt><trkpt lat="43.9482818" lon="10.5496304"><ele>703.0</ele><time>2026-04-19T09:03:49.952Z</time></trkpt><trkpt lat="43.9483335" lon="10.5496814"><ele>703.0</ele><time>2026-04-19T09:03:57.952Z</time></trkpt><trkpt lat="43.9483938" lon="10.549723"><ele>703.0</ele><time>2026-04-19T09:04:06.952Z</time></trkpt><trkpt lat="43.948454" lon="10.5497757"><ele>703.0</ele><time>2026-04-19T09:04:21.952Z</time></trkpt><trkpt lat="43.9485286" lon="10.5498284"><ele>703.0</ele><time>2026-04-19T09:04:24.952Z</time></trkpt><trkpt lat="43.9485814" lon="10.5498766"><ele>703.0</ele><time>2026-04-19T09:04:28.952Z</time></trkpt><trkpt lat="43.948639" lon="10.549937"><ele>701.0</ele><time>2026-04-19T09:04:33.951Z</time></trkpt><trkpt lat="43.9486893" lon="10.5500121"><ele>699.0</ele><time>2026-04-19T09:04:39.951Z</time></trkpt><trkpt lat="43.948722" lon="10.5500903"><ele>697.0</ele><time>2026-04-19T09:04:45.95Z</time></trkpt><trkpt lat="43.9487781" lon="10.5501373"><ele>695.0</ele><time>2026-04-19T09:04:52.95Z</time></trkpt><trkpt lat="43.9488599" lon="10.5501966"><ele>693.0</ele><time>2026-04-19T09:05:31.95Z</time></trkpt><trkpt lat="43.9488816" lon="10.5502834"><ele>691.0</ele><time>2026-04-19T09:06:01.953Z</time></trkpt><trkpt lat="43.9489369" lon="10.5504037"><ele>691.0</ele><time>2026-04-19T09:06:39.951Z</time></trkpt><trkpt lat="43.9490064" lon="10.5504368"><ele>691.0</ele><time>2026-04-19T09:07:16.951Z</time></trkpt><trkpt lat="43.9490925" lon="10.5503567"><ele>691.0</ele><time>2026-04-19T09:08:45.951Z</time></trkpt><trkpt lat="43.9491724" lon="10.5502767"><ele>691.0</ele><time>2026-04-19T09:09:19.951Z</time></trkpt><trkpt lat="43.9491995" lon="10.550196"><ele>691.0</ele><time>2026-04-19T09:09:42.952Z</time></trkpt><trkpt lat="43.9491496" lon="10.5501037"><ele>691.0</ele><time>2026-04-19T09:10:19.95Z</time></trkpt><trkpt lat="43.9490994" lon="10.5500138"><ele>691.0</ele><time>2026-04-19T09:10:58.95Z</time></trkpt><trkpt lat="43.9490223" lon="10.5499276"><ele>691.0</ele><time>2026-04-19T09:12:07.951Z</time></trkpt><trkpt lat="43.9489735" lon="10.5499912"><ele>691.0</ele><time>2026-04-19T09:13:19.95Z</time></trkpt><trkpt lat="43.9489283" lon="10.5501033"><ele>691.0</ele><time>2026-04-19T09:15:08.953Z</time></trkpt><trkpt lat="43.94887" lon="10.5501517"><ele>691.0</ele><time>2026-04-19T09:15:16.951Z</time></trkpt><trkpt lat="43.9488067" lon="10.55018"><ele>691.0</ele><time>2026-04-19T09:15:26.954Z</time></trkpt><trkpt lat="43.9487433" lon="10.5501817"><ele>691.0</ele><time>2026-04-19T09:15:37.95Z</time></trkpt><trkpt lat="43.9487008" lon="10.5502526"><ele>691.0</ele><time>2026-04-19T09:15:47.952Z</time></trkpt><trkpt lat="43.948596" lon="10.5503647"><ele>691.0</ele><time>2026-04-19T09:16:06.952Z</time></trkpt><trkpt lat="43.9485705" lon="10.5504459"><ele>691.0</ele><time>2026-04-19T09:16:12.952Z</time></trkpt><trkpt lat="43.9485641" lon="10.5505415"><ele>691.0</ele><time>2026-04-19T09:16:19.953Z</time></trkpt><trkpt lat="43.9485599" lon="10.5506438"><ele>691.0</ele><time>2026-04-19T09:16:28.951Z</time></trkpt><trkpt lat="43.9485873" lon="10.5507227"><ele>690.4285714285713</ele><time>2026-04-19T09:16:37.952Z</time></trkpt><trkpt lat="43.9486057" lon="10.5508126"><ele>689.8571428571429</ele><time>2026-04-19T09:16:47.952Z</time></trkpt><trkpt lat="43.9486067" lon="10.5509042"><ele>689.2857142857142</ele><time>2026-04-19T09:16:53.954Z</time></trkpt><trkpt lat="43.9486195" lon="10.5509985"><ele>688.7142857142857</ele><time>2026-04-19T09:17:00.952Z</time></trkpt><trkpt lat="43.9486334" lon="10.5510878"><ele>688.1428571428571</ele><time>2026-04-19T09:17:08.952Z</time></trkpt><trkpt lat="43.9486236" lon="10.5511759"><ele>687.5714285714286</ele><time>2026-04-19T09:17:17.953Z</time></trkpt><trkpt lat="43.9485911" lon="10.5512598"><ele>687.0</ele><time>2026-04-19T09:17:24.955Z</time></trkpt><trkpt lat="43.9485533" lon="10.5513373"><ele>686.5714285714286</ele><time>2026-04-19T09:17:32.952Z</time></trkpt><trkpt lat="43.9485274" lon="10.5514179"><ele>686.1428571428571</ele><time>2026-04-19T09:17:43.952Z</time></trkpt><trkpt lat="43.9484819" lon="10.5514872"><ele>685.7142857142857</ele><time>2026-04-19T09:17:52.953Z</time></trkpt><trkpt lat="43.9484084" lon="10.5515091"><ele>685.2857142857142</ele><time>2026-04-19T09:21:56.952Z</time></trkpt><trkpt lat="43.9483425" lon="10.5515195"><ele>684.8571428571429</ele><time>2026-04-19T09:22:05.953Z</time></trkpt><trkpt lat="43.9482796" lon="10.5515382"><ele>684.4285714285713</ele><time>2026-04-19T09:22:15.952Z</time></trkpt><trkpt lat="43.9482102" lon="10.5515618"><ele>684.0</ele><time>2026-04-19T09:22:22.953Z</time></trkpt><trkpt lat="43.9482361" lon="10.5514787"><ele>687.9999999999999</ele><time>2026-04-19T09:22:51.952Z</time></trkpt><trkpt lat="43.9482291" lon="10.5513792"><ele>692.0</ele><time>2026-04-19T09:22:59.953Z</time></trkpt><trkpt lat="43.9482321" lon="10.5512851"><ele>696.0</ele><time>2026-04-19T09:23:08.956Z</time></trkpt><trkpt lat="43.9481667" lon="10.551188"><ele>700.0</ele><time>2026-04-19T09:23:35.954Z</time></trkpt><trkpt lat="43.9481142" lon="10.5511383"><ele>704.0</ele><time>2026-04-19T09:23:41.953Z</time></trkpt><trkpt lat="43.948087" lon="10.5510365"><ele>707.9999999999999</ele><time>2026-04-19T09:24:01.952Z</time></trkpt><trkpt lat="43.9480561" lon="10.5509482"><ele>712.0</ele><time>2026-04-19T09:24:10.953Z</time></trkpt><trkpt lat="43.9479974" lon="10.550916"><ele>712.0</ele><time>2026-04-19T09:24:20.952Z</time></trkpt><trkpt lat="43.9479589" lon="10.5508439"><ele>712.0</ele><time>2026-04-19T09:24:33.953Z</time></trkpt><trkpt lat="43.9479192" lon="10.5507749"><ele>712.0</ele><time>2026-04-19T09:24:45.953Z</time></trkpt><trkpt lat="43.9478354" lon="10.5507151"><ele>712.0</ele><time>2026-04-19T09:25:43.951Z</time></trkpt><trkpt lat="43.9477439" lon="10.5507505"><ele>712.0</ele><time>2026-04-19T09:26:07.952Z</time></trkpt><trkpt lat="43.9476464" lon="10.5508091"><ele>712.0</ele><time>2026-04-19T09:28:02.955Z</time></trkpt><trkpt lat="43.9476882" lon="10.5508963"><ele>712.0</ele><time>2026-04-19T09:29:55.953Z</time></trkpt><trkpt lat="43.9477544" lon="10.5509691"><ele>712.0</ele><time>2026-04-19T09:30:06.954Z</time></trkpt><trkpt lat="43.9478576" lon="10.5510553"><ele>712.0</ele><time>2026-04-19T09:30:28.951Z</time></trkpt><trkpt lat="43.9479129" lon="10.5510984"><ele>712.0</ele><time>2026-04-19T09:30:35.954Z</time></trkpt><trkpt lat="43.9479339" lon="10.5511818"><ele>712.0</ele><time>2026-04-19T09:30:43.952Z</time></trkpt><trkpt lat="43.9479536" lon="10.5512693"><ele>712.0</ele><time>2026-04-19T09:30:52.954Z</time></trkpt><trkpt lat="43.9480657" lon="10.5512837"><ele>712.0</ele><time>2026-04-19T09:31:10.953Z</time></trkpt><trkpt lat="43.948116" lon="10.5512159"><ele>712.0</ele><time>2026-04-19T09:31:20.954Z</time></trkpt><trkpt lat="43.9481593" lon="10.5511482"><ele>712.0</ele><time>2026-04-19T09:31:27.952Z</time></trkpt><trkpt lat="43.9481828" lon="10.5512363"><ele>712.0</ele><time>2026-04-19T09:31:37.953Z</time></trkpt><trkpt lat="43.9481823" lon="10.5514061"><ele>712.0</ele><time>2026-04-19T09:31:59.953Z</time></trkpt><trkpt lat="43.9481962" lon="10.5514992"><ele>712.0</ele><time>2026-04-19T09:32:08.956Z</time></trkpt><trkpt lat="43.948212" lon="10.5515879"><ele>712.3333333333334</ele><time>2026-04-19T09:32:20.952Z</time></trkpt><trkpt lat="43.9483331" lon="10.5516091"><ele>712.6666666666667</ele><time>2026-04-19T09:32:38.951Z</time></trkpt><trkpt lat="43.9483729" lon="10.5516799"><ele>713.0</ele><time>2026-04-19T09:33:03.952Z</time></trkpt><trkpt lat="43.9483099" lon="10.5517239"><ele>713.3333333333334</ele><time>2026-04-19T09:33:12.952Z</time></trkpt><trkpt lat="43.9482677" lon="10.551797"><ele>713.6666666666666</ele><time>2026-04-19T09:33:22.952Z</time></trkpt><trkpt lat="43.9482685" lon="10.5518933"><ele>714.0</ele><time>2026-04-19T09:33:30.953Z</time></trkpt><trkpt lat="43.9482781" lon="10.5519979"><ele>713.4285714285714</ele><time>2026-04-19T09:33:36.953Z</time></trkpt><trkpt lat="43.9482802" lon="10.5520907"><ele>712.8571428571429</ele><time>2026-04-19T09:33:42.951Z</time></trkpt><trkpt lat="43.9482783" lon="10.5521874"><ele>712.2857142857142</ele><time>2026-04-19T09:33:48.951Z</time></trkpt><trkpt lat="43.9482493" lon="10.5522758"><ele>711.7142857142858</ele><time>2026-04-19T09:33:57.954Z</time></trkpt><trkpt lat="43.9482073" lon="10.5523486"><ele>711.1428571428571</ele><time>2026-04-19T09:34:04.952Z</time></trkpt><trkpt lat="43.9481547" lon="10.552416"><ele>710.5714285714286</ele><time>2026-04-19T09:34:11.951Z</time></trkpt><trkpt lat="43.9481165" lon="10.5524963"><ele>710.0</ele><time>2026-04-19T09:34:19.951Z</time></trkpt><trkpt lat="43.9480735" lon="10.5525698"><ele>710.0</ele><time>2026-04-19T09:34:27.952Z</time></trkpt><trkpt lat="43.9480624" lon="10.552668"><ele>710.0</ele><time>2026-04-19T09:34:34.952Z</time></trkpt><trkpt lat="43.9480532" lon="10.5527678"><ele>710.0</ele><time>2026-04-19T09:34:40.951Z</time></trkpt><trkpt lat="43.9480404" lon="10.552857"><ele>710.0</ele><time>2026-04-19T09:34:46.952Z</time></trkpt><trkpt lat="43.9480117" lon="10.5529479"><ele>710.0</ele><time>2026-04-19T09:34:54.951Z</time></trkpt><trkpt lat="43.9480021" lon="10.553035"><ele>710.0</ele><time>2026-04-19T09:35:01.952Z</time></trkpt><trkpt lat="43.9479391" lon="10.5531172"><ele>710.0</ele><time>2026-04-19T09:35:20.951Z</time></trkpt><trkpt lat="43.9478772" lon="10.5531674"><ele>707.3333333333333</ele><time>2026-04-19T09:35:25.951Z</time></trkpt><trkpt lat="43.9478184" lon="10.5532076"><ele>704.6666666666666</ele><time>2026-04-19T09:35:31.952Z</time></trkpt><trkpt lat="43.9477644" lon="10.5532606"><ele>702.0</ele><time>2026-04-19T09:35:36.952Z</time></trkpt><trkpt lat="43.9477392" lon="10.5533892"><ele>699.3333333333334</ele><time>2026-04-19T09:36:23.951Z</time></trkpt><trkpt lat="43.9476419" lon="10.5534276"><ele>696.6666666666667</ele><time>2026-04-19T09:36:35.952Z</time></trkpt><trkpt lat="43.9476163" lon="10.5535128"><ele>694.0</ele><time>2026-04-19T09:37:25.951Z</time></trkpt><trkpt lat="43.9475676" lon="10.5535853"><ele>694.7142857142858</ele><time>2026-04-19T09:37:34.951Z</time></trkpt><trkpt lat="43.9475291" lon="10.5536585"><ele>695.4285714285713</ele><time>2026-04-19T09:37:40.951Z</time></trkpt><trkpt lat="43.9474669" lon="10.5537036"><ele>696.1428571428571</ele><time>2026-04-19T09:37:49.951Z</time></trkpt><trkpt lat="43.9474108" lon="10.553759"><ele>696.8571428571429</ele><time>2026-04-19T09:37:55.952Z</time></trkpt><trkpt lat="43.9473406" lon="10.5538312"><ele>697.5714285714287</ele><time>2026-04-19T09:38:20.954Z</time></trkpt><trkpt lat="43.9472938" lon="10.5538996"><ele>698.2857142857142</ele><time>2026-04-19T09:38:25.952Z</time></trkpt><trkpt lat="43.9472349" lon="10.5539642"><ele>699.0</ele><time>2026-04-19T09:38:32.951Z</time></trkpt><trkpt lat="43.9471782" lon="10.5540246"><ele>699.0</ele><time>2026-04-19T09:38:37.952Z</time></trkpt><trkpt lat="43.947142" lon="10.5540984"><ele>699.0</ele><time>2026-04-19T09:38:44.951Z</time></trkpt><trkpt lat="43.9471452" lon="10.5541894"><ele>699.0</ele><time>2026-04-19T09:38:52.954Z</time></trkpt><trkpt lat="43.9470896" lon="10.5542311"><ele>699.0</ele><time>2026-04-19T09:39:03.951Z</time></trkpt><trkpt lat="43.9470302" lon="10.5542733"><ele>699.0</ele><time>2026-04-19T09:39:10.951Z</time></trkpt><trkpt lat="43.9469774" lon="10.5543255"><ele>699.0</ele><time>2026-04-19T09:39:18.951Z</time></trkpt><trkpt lat="43.9469058" lon="10.5543229"><ele>699.0</ele><time>2026-04-19T09:39:29.951Z</time></trkpt><trkpt lat="43.9468533" lon="10.5543742"><ele>699.0</ele><time>2026-04-19T09:39:39.951Z</time></trkpt><trkpt lat="43.9468087" lon="10.5544385"><ele>699.0</ele><time>2026-04-19T09:39:47.95Z</time></trkpt><trkpt lat="43.9467385" lon="10.5544625"><ele>699.0</ele><time>2026-04-19T09:39:53.95Z</time></trkpt><trkpt lat="43.9466746" lon="10.554431"><ele>699.0</ele><time>2026-04-19T09:40:04.95Z</time></trkpt><trkpt lat="43.946672" lon="10.5545259"><ele>699.0</ele><time>2026-04-19T09:40:26.952Z</time></trkpt><trkpt lat="43.9466311" lon="10.5545973"><ele>699.0</ele><time>2026-04-19T09:40:33.952Z</time></trkpt><trkpt lat="43.9465867" lon="10.5546692"><ele>699.0</ele><time>2026-04-19T09:40:41.952Z</time></trkpt><trkpt lat="43.9465625" lon="10.5547645"><ele>699.1428571428571</ele><time>2026-04-19T09:40:49.951Z</time></trkpt><trkpt lat="43.9464948" lon="10.5547401"><ele>699.2857142857143</ele><time>2026-04-19T09:41:26.951Z</time></trkpt><trkpt lat="43.946435" lon="10.554704"><ele>699.4285714285714</ele><time>2026-04-19T09:41:33.952Z</time></trkpt><trkpt lat="43.9463965" lon="10.5546299"><ele>699.5714285714286</ele><time>2026-04-19T09:41:41.952Z</time></trkpt><trkpt lat="43.9463316" lon="10.5546284"><ele>699.7142857142858</ele><time>2026-04-19T09:41:54.951Z</time></trkpt><trkpt lat="43.9463181" lon="10.5547165"><ele>699.8571428571429</ele><time>2026-04-19T09:42:01.952Z</time></trkpt><trkpt lat="43.94628" lon="10.5547983"><ele>700.0</ele><time>2026-04-19T09:48:41.95Z</time></trkpt><trkpt lat="43.9462967" lon="10.5547083"><ele>700.0</ele><time>2026-04-19T09:49:00.95Z</time></trkpt><trkpt lat="43.9464133" lon="10.554645"><ele>700.0</ele><time>2026-04-19T09:51:50.951Z</time></trkpt><trkpt lat="43.9464733" lon="10.5546133"><ele>700.0</ele><time>2026-04-19T09:51:57.95Z</time></trkpt><trkpt lat="43.9465417" lon="10.5545883"><ele>700.0</ele><time>2026-04-19T09:52:05.95Z</time></trkpt><trkpt lat="43.946605" lon="10.5545783"><ele>700.0</ele><time>2026-04-19T09:52:11.953Z</time></trkpt><trkpt lat="43.946665" lon="10.55454"><ele>700.0</ele><time>2026-04-19T09:52:18.951Z</time></trkpt><trkpt lat="43.9467103" lon="10.5544762"><ele>699.8333333333334</ele><time>2026-04-19T09:52:24.95Z</time></trkpt><trkpt lat="43.9467993" lon="10.554415"><ele>699.6666666666667</ele><time>2026-04-19T09:53:39.953Z</time></trkpt><trkpt lat="43.9467311" lon="10.5544975"><ele>699.5</ele><time>2026-04-19T09:56:27.951Z</time></trkpt><trkpt lat="43.946719" lon="10.5543932"><ele>699.3333333333334</ele><time>2026-04-19T09:57:22.951Z</time></trkpt><trkpt lat="43.9466769" lon="10.554294"><ele>699.1666666666666</ele><time>2026-04-19T09:57:37.952Z</time></trkpt><trkpt lat="43.9466302" lon="10.5542247"><ele>699.0</ele><time>2026-04-19T09:57:43.952Z</time></trkpt><trkpt lat="43.9465762" lon="10.5541061"><ele>699.0</ele><time>2026-04-19T09:58:01.952Z</time></trkpt><trkpt lat="43.9465167" lon="10.5539871"><ele>699.0</ele><time>2026-04-19T09:58:21.952Z</time></trkpt><trkpt lat="43.9464668" lon="10.5538929"><ele>699.0</ele><time>2026-04-19T09:58:31.953Z</time></trkpt><trkpt lat="43.946437" lon="10.5538056"><ele>699.0</ele><time>2026-04-19T09:58:35.952Z</time></trkpt><trkpt lat="43.9463974" lon="10.5537369"><ele>699.0</ele><time>2026-04-19T09:58:41.953Z</time></trkpt><trkpt lat="43.946328" lon="10.5537175"><ele>699.0</ele><time>2026-04-19T09:58:47.951Z</time></trkpt><trkpt lat="43.9462576" lon="10.5537017"><ele>699.0</ele><time>2026-04-19T09:58:53.952Z</time></trkpt><trkpt lat="43.946191" lon="10.5537058"><ele>699.0</ele><time>2026-04-19T09:58:58.951Z</time></trkpt><trkpt lat="43.9461239" lon="10.5536871"><ele>699.0</ele><time>2026-04-19T09:59:03.955Z</time></trkpt><trkpt lat="43.9460711" lon="10.5537414"><ele>699.0</ele><time>2026-04-19T09:59:27.951Z</time></trkpt><trkpt lat="43.9460185" lon="10.5537999"><ele>699.0</ele><time>2026-04-19T09:59:36.951Z</time></trkpt><trkpt lat="43.9459576" lon="10.5538427"><ele>699.0</ele><time>2026-04-19T09:59:47.952Z</time></trkpt><trkpt lat="43.9458283" lon="10.5538753"><ele>696.7142857142857</ele><time>2026-04-19T10:00:31.951Z</time></trkpt><trkpt lat="43.9458257" lon="10.553987"><ele>694.4285714285714</ele><time>2026-04-19T10:01:41.951Z</time></trkpt><trkpt lat="43.9457689" lon="10.5540312"><ele>692.1428571428571</ele><time>2026-04-19T10:02:16.952Z</time></trkpt><trkpt lat="43.9457049" lon="10.5540125"><ele>689.8571428571429</ele><time>2026-04-19T10:02:29.951Z</time></trkpt><trkpt lat="43.945646" lon="10.5539347"><ele>687.5714285714286</ele><time>2026-04-19T10:02:57.952Z</time></trkpt><trkpt lat="43.9455802" lon="10.5539668"><ele>685.2857142857143</ele><time>2026-04-19T10:03:05.951Z</time></trkpt><trkpt lat="43.9455261" lon="10.5540133"><ele>683.0</ele><time>2026-04-19T10:03:12.952Z</time></trkpt><trkpt lat="43.9455063" lon="10.554106"><ele>683.0</ele><time>2026-04-19T10:03:22.952Z</time></trkpt><trkpt lat="43.945438" lon="10.5541093"><ele>683.0</ele><time>2026-04-19T10:03:33.953Z</time></trkpt><trkpt lat="43.9453782" lon="10.5541708"><ele>683.0</ele><time>2026-04-19T10:03:40.951Z</time></trkpt><trkpt lat="43.945381" lon="10.5542599"><ele>683.0</ele><time>2026-04-19T10:03:52.952Z</time></trkpt><trkpt lat="43.9453324" lon="10.5543258"><ele>683.0</ele><time>2026-04-19T10:04:05.953Z</time></trkpt><trkpt lat="43.9452983" lon="10.5544067"><ele>683.0</ele><time>2026-04-19T10:04:15.951Z</time></trkpt><trkpt lat="43.94526" lon="10.5544983"><ele>683.0</ele><time>2026-04-19T10:04:53.952Z</time></trkpt><trkpt lat="43.9452233" lon="10.55458"><ele>683.5714285714286</ele><time>2026-04-19T10:05:01.95Z</time></trkpt><trkpt lat="43.9452067" lon="10.554665"><ele>684.1428571428571</ele><time>2026-04-19T10:05:09.951Z</time></trkpt><trkpt lat="43.945205" lon="10.5547583"><ele>684.7142857142858</ele><time>2026-04-19T10:05:16.951Z</time></trkpt><trkpt lat="43.945205" lon="10.5548483"><ele>685.2857142857142</ele><time>2026-04-19T10:05:23.952Z</time></trkpt><trkpt lat="43.9452167" lon="10.554955"><ele>685.8571428571428</ele><time>2026-04-19T10:05:29.951Z</time></trkpt><trkpt lat="43.9452183" lon="10.555045"><ele>686.4285714285714</ele><time>2026-04-19T10:05:34.95Z</time></trkpt><trkpt lat="43.9452317" lon="10.5551367"><ele>687.0</ele><time>2026-04-19T10:05:40.952Z</time></trkpt><trkpt lat="43.9452317" lon="10.555245"><ele>687.0</ele><time>2026-04-19T10:05:50.951Z</time></trkpt><trkpt lat="43.94522" lon="10.55534"><ele>687.0</ele><time>2026-04-19T10:05:59.952Z</time></trkpt><trkpt lat="43.9451917" lon="10.555435"><ele>687.0</ele><time>2026-04-19T10:06:09.951Z</time></trkpt><trkpt lat="43.94523" lon="10.5555167"><ele>687.0</ele><time>2026-04-19T10:06:16.95Z</time></trkpt><trkpt lat="43.9452583" lon="10.5556067"><ele>687.0</ele><time>2026-04-19T10:06:22.955Z</time></trkpt><trkpt lat="43.94529" lon="10.555695"><ele>687.0</ele><time>2026-04-19T10:06:28.952Z</time></trkpt><trkpt lat="43.9453098" lon="10.555784"><ele>687.0</ele><time>2026-04-19T10:06:37.951Z</time></trkpt><trkpt lat="43.9452971" lon="10.5558739"><ele>687.2857142857143</ele><time>2026-04-19T10:06:44.953Z</time></trkpt><trkpt lat="43.9453336" lon="10.5559597"><ele>687.5714285714286</ele><time>2026-04-19T10:06:52.951Z</time></trkpt><trkpt lat="43.9453425" lon="10.556055"><ele>687.8571428571429</ele><time>2026-04-19T10:07:02.951Z</time></trkpt><trkpt lat="43.9453463" lon="10.5561572"><ele>688.1428571428571</ele><time>2026-04-19T10:07:08.953Z</time></trkpt><trkpt lat="43.9453311" lon="10.556252"><ele>688.4285714285714</ele><time>2026-04-19T10:07:13.955Z</time></trkpt><trkpt lat="43.9453074" lon="10.5563402"><ele>688.7142857142857</ele><time>2026-04-19T10:07:17.954Z</time></trkpt><trkpt lat="43.9452735" lon="10.5564207"><ele>689.0</ele><time>2026-04-19T10:07:20.955Z</time></trkpt><trkpt lat="43.9452353" lon="10.5564931"><ele>688.4285714285714</ele><time>2026-04-19T10:07:24.952Z</time></trkpt><trkpt lat="43.9451873" lon="10.5565643"><ele>687.8571428571429</ele><time>2026-04-19T10:07:29.951Z</time></trkpt><trkpt lat="43.945145" lon="10.5566462"><ele>687.2857142857142</ele><time>2026-04-19T10:07:36.956Z</time></trkpt><trkpt lat="43.9450881" lon="10.556706"><ele>686.7142857142858</ele><time>2026-04-19T10:07:41.951Z</time></trkpt><trkpt lat="43.9450423" lon="10.5567679"><ele>686.1428571428572</ele><time>2026-04-19T10:07:46.954Z</time></trkpt><trkpt lat="43.9450255" lon="10.5568559"><ele>685.5714285714286</ele><time>2026-04-19T10:07:52.952Z</time></trkpt><trkpt lat="43.9450226" lon="10.5569452"><ele>685.0</ele><time>2026-04-19T10:07:57.951Z</time></trkpt><trkpt lat="43.9450527" lon="10.5570234"><ele>684.7142857142857</ele><time>2026-04-19T10:08:02.953Z</time></trkpt><trkpt lat="43.9450713" lon="10.5571222"><ele>684.4285714285714</ele><time>2026-04-19T10:08:08.953Z</time></trkpt><trkpt lat="43.9450919" lon="10.5572108"><ele>684.1428571428571</ele><time>2026-04-19T10:08:13.952Z</time></trkpt><trkpt lat="43.9450916" lon="10.5573037"><ele>683.8571428571429</ele><time>2026-04-19T10:08:19.951Z</time></trkpt><trkpt lat="43.94505" lon="10.5573792"><ele>683.5714285714286</ele><time>2026-04-19T10:08:25.952Z</time></trkpt><trkpt lat="43.9450073" lon="10.5574439"><ele>683.2857142857143</ele><time>2026-04-19T10:08:30.952Z</time></trkpt><trkpt lat="43.9449486" lon="10.5575034"><ele>683.0</ele><time>2026-04-19T10:08:36.951Z</time></trkpt><trkpt lat="43.9448849" lon="10.5575325"><ele>681.2857142857143</ele><time>2026-04-19T10:08:43.951Z</time></trkpt><trkpt lat="43.9448433" lon="10.557609"><ele>679.5714285714286</ele><time>2026-04-19T10:08:50.952Z</time></trkpt><trkpt lat="43.9448089" lon="10.5576892"><ele>677.8571428571429</ele><time>2026-04-19T10:08:55.952Z</time></trkpt><trkpt lat="43.944797" lon="10.5577842"><ele>676.1428571428571</ele><time>2026-04-19T10:09:00.952Z</time></trkpt><trkpt lat="43.9447722" lon="10.5578731"><ele>674.4285714285714</ele><time>2026-04-19T10:09:08.952Z</time></trkpt><trkpt lat="43.9447549" lon="10.5579584"><ele>672.7142857142857</ele><time>2026-04-19T10:09:14.951Z</time></trkpt><trkpt lat="43.9447364" lon="10.558045"><ele>671.0</ele><time>2026-04-19T10:09:20.954Z</time></trkpt><trkpt lat="43.9447356" lon="10.558133"><ele>671.0</ele><time>2026-04-19T10:09:27.951Z</time></trkpt><trkpt lat="43.9447735" lon="10.5582161"><ele>671.0</ele><time>2026-04-19T10:09:34.951Z</time></trkpt><trkpt lat="43.9448124" lon="10.5582866"><ele>671.0</ele><time>2026-04-19T10:09:39.95Z</time></trkpt><trkpt lat="43.9448549" lon="10.5583558"><ele>671.0</ele><time>2026-04-19T10:09:45.951Z</time></trkpt><trkpt lat="43.9449039" lon="10.5584185"><ele>671.0</ele><time>2026-04-19T10:09:52.95Z</time></trkpt><trkpt lat="43.9449347" lon="10.5585106"><ele>671.0</ele><time>2026-04-19T10:10:00.951Z</time></trkpt><trkpt lat="43.944976" lon="10.5585814"><ele>671.0</ele><time>2026-04-19T10:10:06.95Z</time></trkpt><trkpt lat="43.945023" lon="10.5586515"><ele>672.4285714285714</ele><time>2026-04-19T10:10:12.951Z</time></trkpt><trkpt lat="43.9450607" lon="10.5587303"><ele>673.8571428571429</ele><time>2026-04-19T10:10:18.952Z</time></trkpt><trkpt lat="43.9451104" lon="10.5588022"><ele>675.2857142857143</ele><time>2026-04-19T10:10:25.951Z</time></trkpt><trkpt lat="43.945175" lon="10.5588424"><ele>676.7142857142858</ele><time>2026-04-19T10:10:32.951Z</time></trkpt><trkpt lat="43.9452356" lon="10.5588667"><ele>678.1428571428571</ele><time>2026-04-19T10:10:38.95Z</time></trkpt><trkpt lat="43.9453013" lon="10.5588847"><ele>679.5714285714287</ele><time>2026-04-19T10:10:44.951Z</time></trkpt><trkpt lat="43.9453733" lon="10.5589101"><ele>681.0</ele><time>2026-04-19T10:10:49.95Z</time></trkpt><trkpt lat="43.9454361" lon="10.5589332"><ele>681.0</ele><time>2026-04-19T10:10:54.951Z</time></trkpt><trkpt lat="43.9454992" lon="10.558973"><ele>681.0</ele><time>2026-04-19T10:10:59.952Z</time></trkpt><trkpt lat="43.9455597" lon="10.5590306"><ele>681.0</ele><time>2026-04-19T10:11:05.953Z</time></trkpt><trkpt lat="43.9456117" lon="10.5591002"><ele>681.0</ele><time>2026-04-19T10:11:12.952Z</time></trkpt></trkseg></trk></gpx>